Latest Coastal Weather Observations for Cape Grim

IDV60701

Issued at 6:55 pm EDT Friday 31 October 2014 (issued every 10 minutes, with the page automatically refreshed every 10 minutes)

About coastal observations | Map of coastal stations | Coastal observations for VIC | Marine services | Other Formats
Station Details ID: 091331 Name: CAPE GRIM Lat: -40.68 Lon: 144.69 Height: 86.0 m
Data from the previous 72 hours. | See also: Recent months at Cape Grim
Date/Time
EDT
Temp

°C
Wind Pressure Rain
since 9am
mm
Weather Cloud Vis
km
Sea
Height
m
Swell
Dir
 
Speed
knots
Gust
knots
hPa Trend Height
m
Period
s
Dir
31/06:30pm 14.0 E 23 28 997.6 - 0.2 - - - - - - -
31/06:00pm 14.2 E 23 28 998.3 - 0.2 - Partly cloudy - - - - -
31/05:30pm 14.8 E 23 29 998.3 - 0.2 - Partly cloudy - - - - -
31/05:00pm 14.7 ENE 23 29 998.7 - 0.2 - Cloudy - - - - -
31/04:30pm 14.8 ENE 22 26 999.2 - 0.2 - Cloudy - - - - -
31/04:00pm 14.7 ENE 19 24 1000.1 - 0.2 - Cloudy - - - - -
31/03:30pm 14.4 E 19 23 1000.8 - 0.2 - Partly cloudy - - - - -
31/03:00pm 14.2 ENE 19 22 1001.3 - 0.2 - Mostly cloudy - - - - -
31/02:30pm 14.5 ENE 17 21 1001.9 - 0.2 - Cloudy - - - - -
31/02:00pm 14.7 NE 20 26 1002.3 - 0.2 - Cloudy - - - - -
31/01:30pm 15.2 NE 19 22 1002.8 - 0.2 - Cloudy - - - - -
31/01:00pm 14.8 NNE 22 25 1003.3 - 0.2 - Cloudy - - - - -
31/12:30pm 14.8 NE 21 24 1003.7 - 0.2 - Cloudy - - - - -
31/12:00pm 15.2 NNE 16 19 1004.2 - 0.2 - Cloudy - - - - -
31/11:31am 13.7 NNE 18 21 1005.1 - 0.2 - Partly cloudy - - - - -
31/11:30am 13.7 NNE 18 21 1005.1 - 0.2 - Partly cloudy - - - - -
31/11:00am 13.3 NNE 18 23 1005.2 - 0.2 - Partly cloudy - - - - -
31/10:50am 13.6 N 19 23 1005.3 - 0.2 - Partly cloudy - - - - -
31/10:38am 13.4 N 18 24 1005.5 - 0.2 - Partly cloudy - - - - -
31/10:30am 13.1 N 18 22 1005.5 - 0.2 - Partly cloudy - - - - -
31/10:00am 13.2 N 17 21 1006.6 - 0.0 - Partly cloudy - - - - -
31/09:30am 12.7 N 18 23 1006.5 - 0.0 - Partly cloudy - - - - -
31/09:00am 12.4 N 15 21 1007.1 - 2.6 Recent precip. Cloudy - - - - -
31/08:56am 12.3 N 14 19 1007.3 - 2.6 - Partly cloudy - - - - -
31/08:30am 12.0 N 15 18 1007.3 - 2.0 - Partly cloudy - - - - -
31/08:00am 12.1 N 16 19 1007.3 - 1.2 - Partly cloudy - - - - -
31/07:30am 11.9 N 13 17 1007.7 - 1.0 - Partly cloudy - - - - -
31/07:00am 12.2 NNW 15 18 1008.1 - 0.8 - Partly cloudy - - - - -
31/06:30am 12.4 NNW 14 17 1008.1 - 0.8 - Partly cloudy - - - - -
31/06:00am 12.4 NNW 12 14 1007.8 - 0.8 - Cloudy - - - - -
31/05:30am 12.3 NW 12 16 1008.2 - 0.8 - Partly cloudy - - - - -
31/05:00am 12.4 WNW 12 16 1008.4 - 0.8 - Cloudy - - - - -
31/04:30am 12.5 WNW 14 18 1008.7 - 0.8 - Partly cloudy - - - - -
31/04:00am 12.4 WNW 14 17 1009.0 - 0.8 - Cloudy - - - - -
31/03:30am 12.5 WNW 14 19 1009.4 - 0.8 - Cloudy - - - - -
31/03:00am 12.5 W 12 15 1009.5 - 0.8 - Mostly cloudy - - - - -
31/02:30am 12.3 W 13 17 1009.7 - 0.8 - Cloudy - - - - -
31/02:00am 12.0 W 12 15 1010.1 - 0.8 - Cloudy - - - - -
31/01:30am 12.1 W 14 19 1010.7 - 0.8 - Cloudy - - - - -
31/01:00am 11.9 W 12 16 1011.1 - 0.6 - Partly cloudy - - - - -
31/12:30am 11.5 W 13 17 1011.4 - 0.6 - Partly cloudy - - - - -
31/12:26am 11.5 W 13 17 1011.4 - 0.6 - Partly cloudy - - - - -
31/12:07am 11.5 W 15 21 1011.6 - 0.6 - Partly cloudy - - - - -
31/12:00am 12.2 W 14 18 1011.6 - 0.6 - Cloudy - - - - -
 
Date/Time
EDT
Temp

°C
Wind Pressure Rain
since 9am
mm
Weather Cloud Vis
km
Sea
Height
m
Swell
Dir
 
Speed
knots
Gust
knots
hPa Trend Height
m
Period
s
Dir
30/11:30pm 12.4 W 16 21 1011.6 - 0.6 - Cloudy - - - - -
30/11:00pm 12.5 W 16 21 1011.7 - 0.6 - Cloudy - - - - -
30/10:30pm 12.4 W 15 18 1011.9 - 0.6 - Partly cloudy - - - - -
30/10:00pm 12.3 W 14 19 1012.0 - 0.6 - Partly cloudy - - - - -
30/09:30pm 12.1 W 15 19 1012.0 - 0.6 - Partly cloudy - - - - -
30/09:00pm 12.1 W 15 20 1011.9 - 0.6 - Mostly clear - - - - -
30/08:30pm 12.2 W 15 19 1011.8 - 0.6 - - - - - - -
30/08:00pm 12.0 W 14 18 1011.6 - 0.6 - - - - - - -
30/07:30pm 11.9 W 11 15 1011.4 - 0.6 - Partly cloudy - - - - -
30/07:00pm 12.2 W 12 16 1011.3 - 0.6 - Partly cloudy - - - - -
30/06:30pm 12.5 W 14 20 1011.2 - 0.6 - Partly cloudy - - - - -
30/06:00pm 12.8 W 13 21 1011.3 - 0.6 - Partly cloudy - - - - -
30/05:30pm 12.7 W 12 18 1011.3 - 0.6 - Partly cloudy - - - - -
30/05:00pm 12.4 W 14 22 1011.5 - 0.6 - Partly cloudy - - - - -
30/04:42pm 12.3 W 14 20 1011.6 - 0.6 - Partly cloudy - - - - -
30/04:30pm 12.2 W 15 20 1011.6 - 0.6 - Partly cloudy - - - - -
30/04:12pm 11.6 W 16 27 1011.6 - 0.6 - Partly cloudy - - - - -
30/04:09pm 12.0 W 15 21 1011.7 - 0.6 - Partly cloudy - - - - -
30/04:00pm 12.0 W 15 24 1011.6 - 0.6 - Partly cloudy - - - - -
30/03:40pm 12.3 W 13 21 1011.6 - 0.2 - Partly cloudy - - - - -
30/03:30pm 11.8 W 17 25 1011.7 - 0.2 - Partly cloudy - - - - -
30/03:00pm 12.5 W 16 27 1011.7 - 0.0 - Cloudy - - - - -
30/02:59pm 12.9 W 16 27 1011.7 - 0.0 - Partly cloudy - - - - -
30/02:30pm 13.0 W 14 19 1011.8 - 0.0 - Partly cloudy - - - - -
30/02:02pm 12.4 W 15 25 1011.7 - 0.0 - Partly cloudy - - - - -
30/02:00pm 12.3 W 16 25 1011.8 - 0.0 - Partly cloudy - - - - -
30/01:54pm 12.5 W 15 25 1011.8 - 0.0 - Partly cloudy - - - - -
30/01:30pm 13.9 W 15 20 1011.8 - 0.0 - Partly cloudy - - - - -
30/01:00pm 13.7 W 14 19 1011.7 - 0.0 - - - - - - -
30/12:30pm 13.9 W 13 21 1011.8 - 0.0 - Partly cloudy - - - - -
30/12:00pm 13.4 W 16 22 1011.9 - 0.0 - Cloudy - - - - -
30/11:30am 13.8 W 13 18 1012.2 - 0.0 - Partly cloudy - - - - -
30/11:00am 13.8 W 12 16 1012.1 - 0.0 - Partly cloudy - - - - -
30/10:30am 13.3 W 14 19 1012.3 - 0.0 - Partly cloudy - - - - -
30/10:00am 13.0 W 14 19 1012.3 - 0.0 - Partly cloudy - - - - -
30/09:30am 12.9 W 16 22 1012.3 - 0.0 - Partly cloudy - - - - -
30/09:00am 12.6 W 15 20 1012.1 - 1.2 - Mostly cloudy - - - - -
30/08:30am 12.3 W 15 23 1012.0 - 1.2 - Partly cloudy - - - - -
30/08:00am 12.1 W 15 25 1011.8 - 1.2 - Partly cloudy - - - - -
30/07:30am 11.4 WSW 11 20 1011.6 - 1.2 - Partly cloudy - - - - -
30/07:00am 12.5 W 16 22 1011.3 - 1.2 - Cloudy - - - - -
30/06:30am 12.3 W 13 20 1011.2 - 1.2 - Partly cloudy - - - - -
30/06:00am 11.8 W 13 21 1011.1 - 1.2 - Cloudy - - - - -
30/05:30am 12.4 W 15 24 1011.0 - 1.2 - Partly cloudy - - - - -
30/05:00am 12.0 W 14 20 1010.7 - 1.2 - Partly cloudy - - - - -
30/04:30am 11.8 W 13 18 1010.8 - 1.2 - Partly cloudy - - - - -
30/04:00am 11.4 W 12 17 1010.9 - 1.2 - Partly cloudy - - - - -
30/03:42am 11.7 W 15 25 1011.3 - 1.0 - Partly cloudy - - - - -
30/03:30am 11.7 W 12 18 1011.2 - 1.0 - Partly cloudy - - - - -
30/03:00am 11.7 W 17 25 1011.5 - 1.0 - Cloudy - - - - -
30/02:30am 12.1 W 14 20 1011.4 - 1.0 - Partly cloudy - - - - -
30/02:00am 12.1 W 17 31 1011.6 - 1.0 - Partly cloudy - - - - -
30/01:58am 12.2 W 15 31 1011.6 - 1.0 - Partly cloudy - - - - -
30/01:57am 12.4 W 14 31 1011.6 - 1.0 - Partly cloudy - - - - -
30/01:30am 12.4 W 15 20 1011.8 - 1.0 - Cloudy - - - - -
30/01:02am 12.3 W 17 25 1011.9 - 1.0 - Partly cloudy - - - - -
30/01:00am 12.2 W 17 25 1012.0 - 1.0 - Partly cloudy - - - - -
30/12:53am 11.8 W 15 25 1012.1 - 1.0 - Partly cloudy - - - - -
30/12:39am 11.4 W 14 22 1012.2 - 1.0 - Partly cloudy - - - - -
30/12:30am 10.9 W 16 24 1012.3 - 1.0 - Partly cloudy - - - - -
30/12:00am 11.6 W 17 26 1012.5 - 1.0 - Cloudy - - - - -
 
Date/Time
EDT
Temp

°C
Wind Pressure Rain
since 9am
mm
Weather Cloud Vis
km
Sea
Height
m
Swell
Dir
 
Speed
knots
Gust
knots
hPa Trend Height
m
Period
s
Dir
29/11:42pm 12.3 W 15 25 1012.4 - 1.0 - Partly cloudy - - - - -
29/11:30pm 12.0 W 13 21 1012.4 - 1.0 - Partly cloudy - - - - -
29/11:21pm 12.1 W 15 25 1012.5 - 1.0 - Partly cloudy - - - - -
29/11:00pm 12.0 W 17 25 1012.7 - 1.0 - Partly cloudy - - - - -
29/10:30pm 12.4 W 14 23 1012.9 - 0.8 - Partly cloudy - - - - -
29/10:00pm 12.1 W 14 22 1013.0 - 0.8 - Partly cloudy - - - - -
29/09:55pm 12.1 W 13 21 1013.0 - 0.8 - Partly cloudy - - - - -
29/09:44pm 12.0 W 15 25 1012.9 - 0.8 - Partly cloudy - - - - -
29/09:37pm 12.3 W 16 22 1012.9 - 0.8 - Partly cloudy - - - - -
29/09:30pm 12.2 W 17 25 1012.9 - 0.8 - Partly cloudy - - - - -
29/09:02pm 12.5 W 18 28 1012.7 - 0.8 - Partly cloudy - - - - -
29/09:00pm 12.5 W 19 28 1012.7 - 0.8 Recent precip. Cloudy - - - - -
29/08:30pm 11.8 W 19 26 1012.5 - 0.8 - Partly cloudy - - - - -
29/08:20pm 11.7 W 19 28 1012.5 - 0.8 - Partly cloudy - - - - -
29/08:08pm 11.7 W 19 27 1012.6 - 0.6 - Partly cloudy - - - - -
29/08:05pm 12.3 W 19 27 1012.5 - 0.6 - Partly cloudy - - - - -
29/08:00pm 12.3 W 19 27 1012.5 - 0.6 - Partly cloudy - - - - -
29/07:51pm 12.1 W 21 30 1012.5 - 0.4 - Partly cloudy - - - - -
29/07:30pm 12.9 W 21 27 1012.5 - 0.2 - Partly cloudy - - - - -
29/07:00pm 12.9 W 22 27 1012.4 - 0.2 - Partly cloudy - - - - -
29/06:30pm 12.9 WNW 23 29 1012.4 - 0.2 - Partly cloudy - - - - -
29/06:00pm 13.2 WNW 21 26 1012.7 - 0.2 - Mostly cloudy - - - - -
29/05:30pm 13.4 WNW 21 28 1012.9 - 0.2 - Partly cloudy - - - - -
29/05:00pm 12.2 W 21 28 1013.2 - 0.2 - Partly cloudy - - - - -
29/04:47pm 13.0 WNW 19 30 1013.1 - 0.0 - Partly cloudy - - - - -
29/04:30pm 14.1 WNW 19 24 1013.1 - 0.0 - Partly cloudy - - - - -
29/04:00pm 14.1 WNW 18 22 1013.4 - 0.0 - Partly cloudy - - - - -
29/03:30pm 14.7 WNW 19 23 1013.6 - 0.0 - Partly cloudy - - - - -
29/03:00pm 13.8 WNW 21 27 1013.8 - 0.0 - Cloudy - - - - -
29/02:30pm 13.7 WNW 20 25 1013.9 - 0.0 - Partly cloudy - - - - -
29/02:12pm 13.0 WNW 17 28 1014.1 - 0.0 - Partly cloudy - - - - -
29/02:00pm 14.3 W 17 21 1014.1 - 0.0 - Partly cloudy - - - - -
29/01:37pm 12.8 W 17 27 1014.1 - 0.0 - Partly cloudy - - - - -
29/01:30pm 12.8 W 17 25 1014.1 - 0.0 - Partly cloudy - - - - -
29/01:00pm 13.7 WNW 17 21 1014.2 - 0.0 - Partly cloudy - - - - -
29/12:36pm 13.2 W 19 29 1014.3 - 0.0 - Partly cloudy - - - - -
29/12:30pm 13.4 W 20 25 1014.3 - 0.0 - Partly cloudy - - - - -
29/12:00pm 12.6 WNW 19 25 1014.5 - 0.0 - Cloudy - - - - -
29/11:30am 12.6 W 20 28 1014.7 - 0.0 - Partly cloudy - - - - -
29/11:00am 12.9 WNW 17 23 1014.6 - 0.0 - Partly cloudy - - - - -
29/10:30am 12.5 W 18 29 1014.7 - 0.0 - Partly cloudy - - - - -
29/10:00am 13.0 W 17 23 1014.6 - 0.0 - Partly cloudy - - - - -
29/09:30am 12.1 W 20 28 1014.8 - 0.0 - Partly cloudy - - - - -
29/09:21am 12.2 W 16 26 1014.7 - 0.0 - Partly cloudy - - - - -
29/09:00am 12.2 W 13 21 1014.7 - 0.8 - Mostly cloudy - - - - -
29/08:30am 11.9 W 15 24 1014.7 - 0.8 - Cloudy - - - - -
29/08:28am 11.9 W 17 27 1014.7 - 0.8 - Cloudy - - - - -
29/08:00am 11.5 W 20 28 1014.4 - 0.8 - Partly cloudy - - - - -
29/07:30am 11.7 W 17 24 1014.3 - 0.8 - Partly cloudy - - - - -
29/07:00am 11.7 W 14 22 1014.3 - 0.8 - Cloudy - - - - -
29/06:30am 11.7 W 15 21 1014.1 - 0.8 - Cloudy - - - - -
29/06:00am 11.7 W 13 21 1013.7 - 0.8 - Cloudy - - - - -
29/05:30am 11.3 W 13 23 1013.6 - 0.8 - Partly cloudy - - - - -
29/05:21am 11.3 W 15 25 1013.6 - 0.8 - Partly cloudy - - - - -
29/05:00am 11.3 WSW 14 24 1013.3 - 0.8 - Partly cloudy - - - - -
29/04:30am 11.2 W 16 27 1013.1 - 0.8 - Partly cloudy - - - - -
29/04:02am 11.3 WSW 15 25 1012.9 - 0.8 - Partly cloudy - - - - -
29/04:00am 11.2 WSW 16 25 1013.0 - 0.8 - Partly cloudy - - - - -
29/03:49am 11.3 WSW 15 29 1012.9 - 0.8 - Partly cloudy - - - - -
29/03:30am 11.1 WSW 12 20 1013.0 - 0.8 - Partly cloudy - - - - -
29/03:00am 10.9 SW 17 23 1013.1 - 0.8 - Cloudy - - - - -
29/02:30am 10.9 WSW 16 30 1012.9 - 0.8 - Partly cloudy - - - - -
29/02:01am 10.8 SW 19 29 1012.9 - 0.8 - Partly cloudy - - - - -
29/02:00am 10.8 SW 20 29 1012.9 - 0.8 - Partly cloudy - - - - -
29/01:30am 10.7 SW 21 32 1013.1 - 0.8 - Partly cloudy - - - - -
29/01:00am 10.8 SW 24 34 1012.9 - 0.8 - Partly cloudy - - - - -
29/12:30am 10.8 SW 23 36 1012.9 - 0.8 - Partly cloudy - - - - -
29/12:00am 10.7 SW 23 34 1013.0 - 0.8 - Cloudy - - - - -
 
Date/Time
EDT
Temp

°C
Wind Pressure Rain
since 9am
mm
Weather Cloud Vis
km
Sea
Height
m
Swell
Dir
 
Speed
knots
Gust
knots
hPa Trend Height
m
Period
s
Dir
28/11:30pm 10.5 SW 27 37 1013.0 - 0.8 - Partly cloudy - - - - -
28/11:00pm 10.7 WSW 21 36 1012.5 - 0.8 - Partly cloudy - - - - -
28/10:30pm 10.6 WSW 18 33 1012.7 - 0.8 - Partly cloudy - - - - -
28/10:00pm 10.6 SW 28 39 1012.5 - 0.8 - Partly cloudy - - - - -
28/09:30pm 10.5 WSW 18 30 1012.3 - 0.8 - Partly cloudy - - - - -
28/09:00pm 9.8 WSW 23 33 1012.0 - 0.8 Recent precip. Cloudy - - - - -
28/08:56pm 9.3 WSW 21 32 1012.0 - 0.8 - Partly cloudy - - - - -
28/08:46pm 9.3 SW 33 44 1011.9 - 0.6 - Partly cloudy - - - - -
28/08:45pm 9.3 SW 35 44 1011.9 - 0.6 - Partly cloudy - - - - -
28/08:44pm 9.6 WSW 23 44 1011.9 - 0.6 - Partly cloudy - - - - -
28/08:30pm 10.8 WSW 22 34 1011.6 - 0.6 - Partly cloudy - - - - -
28/08:00pm 10.9 WSW 21 37 1011.1 - 0.6 - Partly cloudy - - - - -
28/07:30pm 9.7 WSW 22 35 1011.1 - 0.4 - Partly cloudy - - - - -
28/07:00pm 9.4 WSW 29 47 1010.4 - 0.2 - Partly cloudy - - - - -

Other Formats:

Comma delimited format used in spreadsheet applications
http://www.bom.gov.au/fwo/IDV60701/IDV60701.95954.axf

JavaScript Object Notation format (JSON) in row-major order
http://www.bom.gov.au/fwo/IDV60701/IDV60701.95954.json